Latest Weather Observations for Burketown Airport

IDQ60801

Issued at 11:02 pm EST Tuesday 28 January 2020 (issued every 10 minutes, with the page automatically refreshed every 10 minutes)

About weather observations | Map of weather stations | Latest weather observations for QLD | Other Formats
Station Details ID: 029077 Name: BURKETOWN AIRPORT Lat: -17.75 Lon: 139.54 Height: 5.7 m
Data from the previous 72 hours. | See also: Recent months at Burketown Airport
Date/Time
EST
Temp
°C
App
Temp
°C
Dew
Point
°C
Rel
Hum
%
Delta-T
°C
Wind Press
QNH
hPa
Press
MSL
hPa
Rain since
9am
mm
Dir  Spd
km/h
Gust
km/h
Spd
kts
Gust
kts
28/11:00pm 26.4 29.4 24.6 90 1.3 S 17 20 9 11 1002.3 1002.2 0.2
28/10:30pm 26.5 28.9 24.3 88 1.5 S 19 22 10 12 1002.7 1002.6 0.2
28/10:00pm 26.7 29.6 24.5 88 1.5 SSE 17 26 9 14 1002.6 1002.5 0.2
28/09:30pm 26.9 30.2 25.1 90 1.3 SSE 17 22 9 12 1002.1 1002.0 0.2
28/09:00pm 27.1 31.7 25.3 90 1.3 SSW 11 17 6 9 1001.9 1001.8 0.2
28/08:30pm 26.6 31.6 24.8 90 1.3 SSE 7 11 4 6 1001.6 1001.5 0.2
28/08:00pm 26.4 28.9 24.4 89 1.4 SE 19 26 10 14 1001.0 1000.9 0.2
28/07:30pm 27.6 31.7 24.6 84 2.1 SSE 11 13 6 7 1000.7 1000.6 0.2
28/07:00pm 27.7 31.1 24.1 81 2.5 SE 13 17 7 9 1000.2 1000.1 0.2
28/06:30pm 27.8 30.5 25.0 85 2.0 SE 20 26 11 14 1000.2 1000.1 0.2
28/06:09pm 27.9 32.2 26.1 90 1.3 SSE 15 19 8 10 999.9 999.8 0.2
28/06:00pm 27.5 31.9 26.8 96 0.5 S 17 24 9 13 999.8 999.7 0.2
28/05:54pm 27.3 30.7 26.1 93 0.8 S 20 30 11 16 999.8 999.7 0.2
28/05:30pm 29.6 33.3 25.8 80 2.7 SSW 17 20 9 11 999.5 999.4 0.0
28/05:00pm 29.1 32.0 25.1 79 2.8 SSW 19 26 10 14 999.0 998.9 0.0
28/04:30pm 30.4 33.2 25.2 74 3.7 SSW 20 26 11 14 998.8 998.7 0.0
28/04:00pm 30.9 33.5 25.5 73 3.8 SSW 22 30 12 16 999.0 998.9 0.0
28/03:30pm 31.7 34.7 25.5 69 4.4 SSW 20 28 11 15 999.1 999.0 0.0
28/03:00pm 30.7 33.4 25.1 72 4.0 SSW 20 28 11 15 999.3 999.2 0.0
28/02:30pm 30.4 33.6 24.3 70 4.3 SW 15 22 8 12 999.7 999.6 0.0
28/02:00pm 29.6 32.1 23.8 71 4.0 SSW 17 22 9 12 1000.1 1000.0 0.0
28/01:30pm 30.2 33.6 25.9 78 3.1 S 19 26 10 14 1000.6 1000.5 0.0
28/01:00pm 29.5 32.1 24.6 75 3.4 S 19 24 10 13 1001.2 1001.1 0.0
28/12:30pm 29.2 30.5 25.2 79 2.8 SSW 28 33 15 18 1001.7 1001.6 0.0
28/12:00pm 30.5 33.1 24.6 70 4.1 S 19 24 10 13 1001.8 1001.7 0.0
28/11:30am 29.6 31.9 24.5 74 3.6 S 20 24 11 13 1001.9 1001.8 0.0
28/11:00am 29.6 32.5 25.1 77 3.2 SSW 19 24 10 13 1002.3 1002.2 0.0
28/10:30am 28.8 31.1 24.4 77 3.1 SSW 20 26 11 14 1002.6 1002.5 0.0
28/10:00am 28.8 32.4 25.6 83 2.3 S 17 22 9 12 1002.4 1002.3 0.0
28/09:30am 27.6 30.4 25.0 86 1.8 S 19 22 10 12 1002.3 1002.2 0.0
28/09:13am 27.1 29.9 24.9 88 1.5 S 19 24 10 13 1002.2 1002.1 0.0
28/09:00am 26.8 29.9 25.4 92 1.0 S 19 24 10 13 1002.5 1002.4 9.4
28/08:30am 26.4 29.9 25.4 94 0.7 SSW 17 22 9 12 1002.7 1002.6 9.4
28/08:00am 26.1 30.1 25.6 97 0.4 SSW 15 19 8 10 1002.4 1002.3 9.4
28/07:30am 25.8 30.3 25.8 100 0.0 S 13 17 7 9 1002.1 1002.0 9.4
28/07:00am 25.5 29.8 25.5 100 0.0 SSW 13 17 7 9 1001.7 1001.6 9.4
28/06:30am 25.5 30.2 25.5 100 0.0 SSW 11 15 6 8 1001.6 1001.5 9.4
28/06:00am 25.3 29.1 25.3 100 0.0 SSW 15 19 8 10 1001.5 1001.4 9.4
28/05:30am 25.2 28.9 25.2 100 0.0 SSW 15 19 8 10 1001.1 1001.0 9.4
28/05:00am 25.3 29.9 25.3 100 0.0 S 11 15 6 8 1001.4 1001.3 9.4
28/04:30am 25.3 29.5 25.3 100 0.0 S 13 17 7 9 1001.0 1000.9 9.4
28/04:00am 25.5 30.2 25.5 100 0.0 SSE 11 13 6 7 1001.1 1001.0 9.4
28/03:30am 25.4 29.5 25.2 99 0.1 S 13 17 7 9 1001.0 1000.9 9.4
28/03:00am 25.6 29.8 25.4 99 0.1 SSE 13 15 7 8 1001.1 1001.0 9.4
28/02:30am 25.7 30.8 25.5 99 0.1 SE 9 15 5 8 1001.5 1001.4 9.4
28/02:00am 25.8 31.3 25.6 99 0.1 NE 7 9 4 5 1002.5 1002.4 9.4
28/01:30am 25.7 31.1 25.4 98 0.2 ESE 7 11 4 6 1002.3 1002.2 9.4
28/01:00am 25.8 30.1 25.5 98 0.2 ESE 13 19 7 10 1002.7 1002.6 9.4
28/12:52am 25.8 30.1 25.5 98 0.2 ESE 13 17 7 9 1002.8 1002.7 9.4
28/12:30am 25.8 29.6 25.3 97 0.3 SE 15 20 8 11 1002.7 1002.6 9.4
28/12:00am 26.0 30.3 25.5 97 0.4 SE 13 17 7 9 1003.5 1003.4 9.4
 
Date/Time
EST
Temp
°C
App
Temp
°C
Dew
Point
°C
Rel
Hum
%
Delta-T
°C
Wind Press
QNH
hPa
Press
MSL
hPa
Rain since
9am
mm
Dir  Spd
km/h
Gust
km/h
Spd
kts
Gust
kts
27/11:33pm 26.0 31.0 26.0 100 0.0 SE 11 15 6 8 1003.7 1003.6 9.4
27/11:30pm 26.2 31.7 26.2 100 0.0 SE 9 13 5 7 1003.7 1003.6 9.4
27/11:00pm 26.2 32.0 26.0 99 0.1 SE 7 11 4 6 1004.0 1003.9 9.4
27/10:30pm 26.1 31.4 25.8 98 0.2 SSE 9 11 5 6 1003.9 1003.8 9.4
27/10:23pm 26.1 31.4 25.9 99 0.1 S 9 11 5 6 1003.8 1003.7 9.4
27/10:00pm 26.2 31.5 25.9 98 0.2 SE 9 13 5 7 1003.7 1003.6 9.4
27/09:30pm 26.1 30.6 25.8 98 0.2 SE 13 15 7 8 1003.9 1003.8 9.4
27/09:00pm 26.2 31.1 25.9 98 0.2 SE 11 13 6 7 1003.6 1003.5 9.4
27/08:30pm 26.4 31.3 26.4 100 0.0 SE 13 15 7 8 1002.9 1002.8 9.4
27/08:00pm 26.4 32.1 26.4 100 0.0 SE 9 11 5 6 1002.6 1002.5 9.4
27/07:30pm 26.4 30.9 26.4 100 0.0 SE 15 20 8 11 1002.5 1002.4 9.2
27/07:23pm 26.3 30.4 26.3 100 0.0 SE 17 24 9 13 1002.5 1002.4 9.2
27/07:12pm 26.5 30.3 26.5 100 0.0 SE 19 24 10 13 1002.4 1002.3 8.8
27/07:00pm 26.5 31.1 26.5 100 0.0 SE 15 20 8 11 1002.5 1002.4 8.6
27/06:30pm 26.9 31.2 26.7 99 0.1 ESE 17 20 9 11 1002.1 1002.0 8.0
27/06:22pm 27.3 31.8 27.0 98 0.2 ESE 17 24 9 13 1001.9 1001.8 7.2
27/06:00pm 27.7 31.7 26.8 95 0.6 ESE 19 28 10 15 1001.5 1001.4 6.6
27/05:47pm 28.2 33.2 26.6 91 1.1 ENE 13 17 7 9 1001.3 1001.2 5.6
27/05:30pm 28.9 34.1 26.3 86 1.9 E 11 15 6 8 1001.3 1001.2 3.6
27/05:00pm 29.0 34.2 26.8 88 1.6 NE 13 17 7 9 1001.3 1001.2 3.6
27/04:30pm 29.1 34.0 26.9 88 1.6 NNE 15 22 8 12 1000.7 1000.6 3.6
27/04:00pm 30.4 34.7 27.2 83 2.3 NE 19 22 10 12 1000.9 1000.8 3.4
27/03:30pm 29.3 34.3 27.1 88 1.6 NE 15 19 8 10 1001.3 1001.2 3.4
27/03:00pm 28.6 34.1 26.8 90 1.3 NE 11 17 6 9 1001.7 1001.6 3.4
27/02:53pm 28.8 33.7 27.0 90 1.3 NE 15 22 8 12 1001.7 1001.6 2.8
27/02:30pm 29.8 35.0 27.4 87 1.7 NNE 15 20 8 11 1001.8 1001.7 1.8
27/02:26pm 29.7 34.6 26.9 85 2.0 NNE 15 20 8 11 1001.9 1001.8 1.8
27/02:15pm 29.9 34.8 26.9 84 2.2 N 15 22 8 12 1002.1 1002.0 1.8
27/02:00pm 29.8 34.1 26.6 83 2.3 N 17 20 9 11 1002.5 1002.4 1.8
27/01:42pm 29.1 34.5 27.1 89 1.4 N 13 17 7 9 1002.8 1002.7 1.6
27/01:36pm 28.7 33.8 27.3 92 1.0 N 15 19 8 10 1003.0 1002.9 1.6
27/01:30pm 29.3 34.4 27.3 89 1.4 NNW 15 20 8 11 1003.2 1003.1 1.6
27/01:00pm 28.7 35.1 27.5 93 0.9 N 9 15 5 8 1003.7 1003.6 1.6
27/12:30pm 27.8 34.3 27.6 99 0.1 N 9 13 5 7 1004.0 1003.9 1.6
27/12:23pm 27.5 33.2 27.5 100 0.0 NNE 13 15 7 8 1004.2 1004.1 1.6
27/12:00pm 27.1 32.5 27.1 100 0.0 NNE 13 17 7 9 1004.2 1004.1 1.6
27/11:30am 26.6 32.0 26.6 100 0.0 N 11 15 6 8 1004.3 1004.2 1.6
27/11:00am 26.3 31.9 26.3 100 0.0 N 9 13 5 7 1004.6 1004.5 1.6
27/10:30am 26.1 31.2 26.1 100 0.0 N 11 15 6 8 1004.9 1004.8 1.4
27/10:00am 25.8 30.7 25.8 100 0.0 NNE 11 17 6 9 1005.2 1005.1 1.0
27/09:30am 25.8 30.7 25.8 100 0.0 NNE 11 15 6 8 1005.1 1005.0 0.8
27/09:00am 25.8 31.1 25.8 100 0.0 N 9 11 5 6 1005.1 1005.0 84.0
27/08:57am 25.8 31.1 25.8 100 0.0 N 9 17 5 9 1005.1 1005.0 84.0
27/08:30am 25.7 30.1 25.7 100 0.0 N 13 19 7 10 1005.3 1005.2 83.4
27/08:00am 25.6 30.0 25.6 100 0.0 N 13 19 7 10 1005.2 1005.1 82.2
27/07:30am 25.3 30.8 25.3 100 0.0 NE 6 11 3 6 1005.2 1005.1 80.8
27/07:07am 25.1 30.3 25.1 100 0.0 NNE 7 11 4 6 1004.9 1004.8 78.4
27/07:00am 25.1 29.9 25.1 100 0.0 N 9 15 5 8 1004.7 1004.6 77.2
27/06:44am 25.0 28.2 25.0 100 0.0 N 17 26 9 14 1004.5 1004.4 76.0
27/06:30am 24.9 28.1 24.9 100 0.0 N 17 22 9 12 1004.3 1004.2 73.8
27/06:00am 25.6 31.1 25.6 100 0.0 NNE 7 13 4 7 1003.9 1003.8 49.8
27/05:30am 25.7 30.5 25.7 100 0.0 SSW 11 17 6 9 1003.9 1003.8 33.2
27/05:26am 25.8 30.3 25.8 100 0.0 SW 13 17 7 9 1003.9 1003.8 32.4
27/05:00am 25.6 30.0 25.6 100 0.0 NE 13 17 7 9 1002.9 1002.8 28.8
27/04:30am 26.0 30.6 26.0 100 0.0 NW 13 17 7 9 1003.0 1002.9 19.0
27/04:00am 26.3 30.4 26.3 100 0.0 N 17 24 9 13 1002.8 1002.7 14.8
27/03:30am 26.5 30.7 26.5 100 0.0 NNW 17 22 9 12 1001.8 1001.7 14.6
27/03:00am 26.3 31.5 26.3 100 0.0 NW 11 13 6 7 1002.6 1002.5 14.4
27/02:30am 26.1 29.1 26.1 100 0.0 N 22 28 12 15 1003.2 1003.1 14.2
27/02:00am 26.1 29.7 26.1 100 0.0 NW 19 26 10 14 1003.8 1003.7 13.4
27/01:52am 26.3 30.0 26.3 100 0.0 NW 19 24 10 13 1003.8 1003.7 12.8
27/01:48am 26.3 30.4 26.3 100 0.0 NW 17 24 9 13 1003.9 1003.8 12.6
27/01:41am 25.9 29.7 25.9 100 0.0 NW 17 26 9 14 1003.7 1003.6 12.4
27/01:30am 26.1 28.3 26.1 100 0.0 N 26 43 14 23 1003.9 1003.8 12.0
27/01:28am 26.3 27.9 26.3 100 0.0 N 30 43 16 23 1003.8 1003.7 11.6
27/01:00am 26.3 30.0 26.3 100 0.0 N 19 26 10 14 1004.3 1004.2 10.0
27/12:53am 26.3 29.8 26.3 100 0.0 N 20 26 11 14 1004.6 1004.5 9.6
27/12:30am 26.3 26.2 25.8 97 0.4 NNW 37 50 20 27 1005.1 1005.0 4.8
27/12:29am 26.4 26.1 25.5 95 0.6 N 37 50 20 27 1005.1 1005.0 4.2
27/12:23am 28.9 31.7 26.9 89 1.4 NNE 26 46 14 25 1004.7 1004.6 2.2
27/12:03am 28.8 33.6 27.4 92 1.0 NNE 17 20 9 11 1004.9 1004.8 2.2
27/12:00am 28.8 34.0 27.4 92 1.0 NNE 15 20 8 11 1004.8 1004.7 2.2
 
Date/Time
EST
Temp
°C
App
Temp
°C
Dew
Point
°C
Rel
Hum
%
Delta-T
°C
Wind Press
QNH
hPa
Press
MSL
hPa
Rain since
9am
mm
Dir  Spd
km/h
Gust
km/h
Spd
kts
Gust
kts
26/11:46pm 28.4 33.3 27.0 92 1.0 N 15 22 8 12 1005.0 1004.9 1.8
26/11:30pm 29.3 33.3 26.7 86 1.9 NNE 19 24 10 13 1005.2 1005.1 0.0
26/11:00pm 29.2 33.8 26.6 86 1.9 NNE 15 20 8 11 1005.4 1005.3 0.0
26/10:30pm 29.3 33.9 26.5 85 2.0 N 15 17 8 9 1005.7 1005.6 0.0
26/10:00pm 29.2 33.8 26.6 86 1.9 N 15 19 8 10 1005.4 1005.3 0.0
26/09:30pm 29.1 33.9 26.3 85 2.0 N 13 17 7 9 1005.0 1004.9 0.0
26/09:00pm 29.2 34.6 26.0 83 2.3 N 9 13 5 7 1005.2 1005.1 0.0
26/08:30pm 29.3 33.7 25.7 81 2.5 N 13 17 7 9 1005.0 1004.9 0.0
26/08:00pm 29.5 32.9 25.3 78 3.0 NNW 17 24 9 13 1004.6 1004.5 0.0
26/07:30pm 29.7 32.7 25.2 77 3.2 N 19 28 10 15 1003.9 1003.8 0.0
26/07:00pm 30.1 32.5 25.2 75 3.5 N 22 30 12 16 1003.7 1003.6 0.0
26/06:30pm 30.5 32.3 24.9 72 3.9 N 24 30 13 16 1003.4 1003.3 0.0
26/06:00pm 30.8 32.6 24.9 71 4.2 N 24 32 13 17 1002.9 1002.8 0.0
26/05:30pm 31.1 31.7 24.7 68 4.5 N 30 37 16 20 1002.8 1002.7 0.0
26/05:00pm 31.7 32.3 24.8 67 4.9 N 30 37 16 20 1002.8 1002.7 0.0
26/04:30pm 32.2 33.6 24.8 65 5.2 N 26 33 14 18 1003.1 1003.0 0.0
26/04:00pm 32.6 33.9 25.2 65 5.3 N 28 35 15 19 1003.3 1003.2 0.0
26/03:30pm 32.2 33.7 25.5 67 4.8 NNE 28 39 15 21 1003.6 1003.5 0.0
26/03:00pm 32.5 34.2 25.3 66 5.1 N 26 33 14 18 1004.0 1003.9 0.0
26/02:30pm 32.3 33.7 25.4 67 4.9 N 28 37 15 20 1004.3 1004.2 0.0
26/02:00pm 33.2 35.7 26.0 66 5.2 N 24 32 13 17 1004.7 1004.6 0.0
26/01:30pm 31.8 33.9 25.4 69 4.5 N 24 32 13 17 1005.3 1005.2 0.0
26/01:00pm 31.8 34.3 25.4 69 4.5 N 22 32 12 17 1005.8 1005.7 0.0
26/12:30pm 31.1 34.3 25.9 74 3.7 N 20 26 11 14 1006.6 1006.5 0.0
26/12:00pm 30.5 33.9 25.8 76 3.3 NNE 19 28 10 15 1006.9 1006.8 0.0
26/11:30am 30.0 33.3 25.7 78 3.0 NNE 19 28 10 15 1007.1 1007.0 0.0
26/11:00am 29.9 33.4 25.4 77 3.2 NNE 17 24 9 13 1007.4 1007.3 0.0
26/10:30am 29.2 32.8 25.0 78 2.9 N 15 20 8 11 1007.4 1007.3 0.0
26/10:00am 29.0 32.5 24.8 78 2.9 N 15 20 8 11 1007.5 1007.4 0.0
26/09:30am 28.7 33.3 25.3 82 2.4 NNW 11 13 6 7 1007.3 1007.2 0.0
26/09:00am 28.3 33.2 25.3 84 2.1 N 9 13 5 7 1007.4 1007.3 1.8
26/08:30am 27.8 33.1 26.4 92 1.0 NNE 11 15 6 8 1007.1 1007.0 1.8
26/08:00am 27.5 32.6 26.1 92 1.0 N 11 15 6 8 1007.1 1007.0 1.8
26/07:30am 27.0 32.8 26.1 95 0.6 NE 7 11 4 6 1006.5 1006.4 1.8
26/07:00am 27.0 32.3 26.5 97 0.4 E 11 15 6 8 1006.1 1006.0 1.8
26/06:30am 26.8 32.7 25.9 95 0.6 NE 6 9 3 5 1005.4 1005.3 1.8
26/06:00am 26.9 32.3 26.0 95 0.6 N 9 13 5 7 1005.3 1005.2 1.6
26/05:30am 27.0 32.6 25.8 93 0.8 N 7 9 4 5 1005.1 1005.0 1.6
26/05:00am 27.0 31.7 25.6 92 1.0 N 11 19 6 10 1004.8 1004.7 1.6
26/04:30am 27.8 31.7 26.0 90 1.3 N 17 24 9 13 1004.6 1004.5 1.6
26/04:00am 27.8 33.8 26.9 95 0.6 NNE 9 15 5 8 1004.3 1004.2 1.6
26/03:30am 27.8 34.1 27.3 97 0.4 N 9 13 5 7 1004.4 1004.3 1.6
26/03:00am 27.8 33.9 27.1 96 0.5 NNW 9 11 5 6 1004.7 1004.6 1.6
26/02:30am 27.8 32.8 26.6 93 0.9 NNW 13 13 7 7 1005.2 1005.1 1.6
26/02:00am 28.2 32.7 25.8 87 1.7 N 13 15 7 8 1005.4 1005.3 1.6
26/01:30am 28.6 35.5 27.7 95 0.7 N 7 9 4 5 1005.5 1005.4 1.6
26/01:00am 28.4 35.0 27.2 93 0.9 NNE 7 7 4 4 1006.1 1006.0 1.6
26/12:30am 28.2 34.8 26.4 90 1.3 N 4 6 2 3 1006.2 1006.1 1.6
26/12:00am 28.5 33.7 26.3 88 1.6 NNE 11 13 6 7 1006.5 1006.4 1.6
 
Date/Time
EST
Temp
°C
App
Temp
°C
Dew
Point
°C
Rel
Hum
%
Delta-T
°C
Wind Press
QNH
hPa
Press
MSL
hPa
Rain since
9am
mm
Dir  Spd
km/h
Gust
km/h
Spd
kts
Gust
kts
25/11:30pm 28.8 33.6 26.8 89 1.4 N 15 20 8 11 1006.8 1006.7 1.6

Other formats

Comma delimited format used in spreadsheet applications
http://www.bom.gov.au/fwo/IDQ60801/IDQ60801.94260.axf

JavaScript Object Notation format (JSON) in row-major order
http://www.bom.gov.au/fwo/IDQ60801/IDQ60801.94260.json

Data quality

Most of these data are generated automatically and are frequently updated. Quality checks on data are not normally performed. It is possible for incorrect values to appear. Refer to information at About Latest Weather Observations and please check the disclaimer before using these data.